createdAt,value
2022-11-29T00:01:01.161Z,34.17
2022-11-29T00:03:28.934Z,33.78
2022-11-29T00:05:56.222Z,34.83
2022-11-29T00:08:24.177Z,33.03
2022-11-29T00:10:51.114Z,32.53
2022-11-29T00:13:18.285Z,33.85
2022-11-29T00:15:45.086Z,33.83
2022-11-29T00:18:11.886Z,36.50
2022-11-29T00:20:39.620Z,35.47
2022-11-29T00:23:06.817Z,34.25
2022-11-29T00:25:33.602Z,32.47
2022-11-29T00:28:00.426Z,32.33
2022-11-29T00:30:28.168Z,32.67
2022-11-29T00:32:55.050Z,35.58
2022-11-29T00:35:22.114Z,33.28
2022-11-29T00:37:48.888Z,33.58
2022-11-29T00:40:15.773Z,34.92
2022-11-29T00:42:42.554Z,32.97
2022-11-29T00:45:09.811Z,34.85
2022-11-29T00:47:37.338Z,32.22
2022-11-29T00:50:05.182Z,33.38
2022-11-29T00:52:32.022Z,33.58
2022-11-29T00:54:58.850Z,35.90
2022-11-29T00:57:25.654Z,36.88
2022-11-29T00:59:52.407Z,34.97
2022-11-29T01:02:19.264Z,33.30
2022-11-29T01:04:46.316Z,32.22
2022-11-29T01:07:13.372Z,35.38
2022-11-29T01:09:40.296Z,33.45
2022-11-29T01:12:07.286Z,33.65
2022-11-29T01:14:34.110Z,36.70
2022-11-29T01:17:01.089Z,32.83
2022-11-29T01:19:27.966Z,33.72
2022-11-29T01:21:54.707Z,33.92
2022-11-29T01:24:22.322Z,32.33
2022-11-29T01:26:49.059Z,33.85
2022-11-29T01:29:15.958Z,33.30
2022-11-29T01:31:42.844Z,35.03
2022-11-29T01:34:10.765Z,32.63
2022-11-29T01:36:37.666Z,33.83
2022-11-29T01:39:05.524Z,32.22
2022-11-29T01:41:35.015Z,36.08
2022-11-29T01:44:04.957Z,34.35
2022-11-29T01:46:37.322Z,33.83
2022-11-29T01:49:11.108Z,32.60
2022-11-29T01:51:40.433Z,32.50
2022-11-29T01:54:09.080Z,31.98
2022-11-29T01:56:37.721Z,33.10
2022-11-29T01:59:09.046Z,34.50
2022-11-29T02:01:37.378Z,36.40
2022-11-29T02:04:05.926Z,31.50
2022-11-29T02:06:34.283Z,34.63
2022-11-29T02:09:01.101Z,38.97
2022-11-29T02:11:39.911Z,37.05
2022-11-29T02:14:25.778Z,32.42
2022-11-29T02:16:56.811Z,36.40
2022-11-29T02:20:08.577Z,37.25
2022-11-29T02:22:46.738Z,35.42
2022-11-29T02:25:25.809Z,34.47
2022-11-29T02:27:52.633Z,35.08
2022-11-29T02:31:05.422Z,35.15
2022-11-29T02:34:07.402Z,37.28
2022-11-29T02:37:03.269Z,36.00
2022-11-29T02:39:50.179Z,37.30
2022-11-29T02:42:56.258Z,33.58
2022-11-29T02:45:45.213Z,33.65
2022-11-29T02:48:20.872Z,35.58
2022-11-29T02:50:58.684Z,32.83
2022-11-29T02:53:35.431Z,34.15
2022-11-29T02:56:15.357Z,31.80
2022-11-29T02:59:05.697Z,30.95
2022-11-29T03:01:57.892Z,33.65
2022-11-29T03:04:36.192Z,33.80
2022-11-29T03:07:09.158Z,33.38
2022-11-29T03:09:49.167Z,31.45
2022-11-29T03:12:31.077Z,35.53
2022-11-29T03:15:20.237Z,31.77
2022-11-29T03:18:17.946Z,31.00
2022-11-29T03:21:03.536Z,35.28
2022-11-29T03:23:47.697Z,29.42
2022-11-29T03:26:31.920Z,27.52
2022-11-29T03:29:20.098Z,32.97
2022-11-29T03:32:01.931Z,34.35
2022-11-29T03:34:56.934Z,29.20
2022-11-29T03:37:44.010Z,29.50
2022-11-29T03:40:15.072Z,32.42
2022-11-29T03:43:02.184Z,34.55
2022-11-29T03:45:52.001Z,31.83
2022-11-29T03:48:35.246Z,33.22
2022-11-29T03:51:11.268Z,32.10
2022-11-29T03:53:56.887Z,32.42
2022-11-29T03:56:39.664Z,33.67
2022-11-29T03:59:09.482Z,36.55
2022-11-29T04:02:17.565Z,39.35
2022-11-29T04:04:44.603Z,36.67
2022-11-29T04:07:43.575Z,39.47
2022-11-29T04:10:29.318Z,41.50
2022-11-29T04:13:35.462Z,36.70
2022-11-29T04:16:11.276Z,36.60
2022-11-29T04:18:38.175Z,38.72
2022-11-29T04:21:30.513Z,39.60
2022-11-29T04:24:06.422Z,38.30
2022-11-29T04:26:53.659Z,36.22
2022-11-29T04:29:35.385Z,28.20
2022-11-29T04:32:17.299Z,28.58
2022-11-29T04:34:50.152Z,26.58
2022-11-29T04:37:50.339Z,27.30
2022-11-29T04:40:26.293Z,34.50
2022-11-29T04:43:08.165Z,31.10
2022-11-29T04:46:12.211Z,35.25
2022-11-29T04:49:09.432Z,32.55
2022-11-29T04:51:55.905Z,31.52
2022-11-29T04:54:51.677Z,35.97
2022-11-29T04:57:27.286Z,30.55
2022-11-29T05:00:16.932Z,28.20
2022-11-29T05:02:59.545Z,32.58
2022-11-29T05:06:04.400Z,30.17
2022-11-29T05:09:09.481Z,33.78
2022-11-29T05:11:48.278Z,29.80
2022-11-29T05:14:33.584Z,32.80
2022-11-29T05:17:33.358Z,33.45
2022-11-29T05:20:09.373Z,32.72
2022-11-29T05:22:53.946Z,28.05
2022-11-29T05:25:35.692Z,36.55
2022-11-29T05:28:11.295Z,29.60
2022-11-29T05:31:08.436Z,32.67
2022-11-29T05:33:44.736Z,33.25
2022-11-29T05:36:49.470Z,34.13
2022-11-29T05:39:34.363Z,34.13
2022-11-29T05:42:24.015Z,37.67
2022-11-29T05:45:24.798Z,34.55
2022-11-29T05:48:10.079Z,33.25
2022-11-29T05:50:48.334Z,35.60
2022-11-29T05:54:04.916Z,40.85
2022-11-29T05:56:46.461Z,38.80
2022-11-29T05:59:20.306Z,41.72
2022-11-29T06:02:19.370Z,34.22
2022-11-29T06:04:55.355Z,43.38
2022-11-29T06:07:44.599Z,34.45
2022-11-29T06:10:13.052Z,40.10
2022-11-29T06:12:42.567Z,39.50
2022-11-29T06:15:27.982Z,40.90
2022-11-29T06:18:15.171Z,40.72
2022-11-29T06:21:06.929Z,37.95
2022-11-29T06:24:01.254Z,40.45
2022-11-29T06:27:03.786Z,38.70
2022-11-29T06:29:56.664Z,37.70
2022-11-29T06:32:46.062Z,33.67
2022-11-29T06:35:32.926Z,39.53
2022-11-29T06:38:24.806Z,39.13
2022-11-29T06:40:56.041Z,35.00
2022-11-29T06:43:27.279Z,38.97
2022-11-29T06:46:05.738Z,41.20
2022-11-29T06:48:40.248Z,37.20
2022-11-29T06:51:24.183Z,40.70
2022-11-29T06:54:04.535Z,39.88
2022-11-29T06:57:15.629Z,35.33
2022-11-29T07:00:02.017Z,32.63
2022-11-29T07:02:38.627Z,35.83
2022-11-29T07:05:28.910Z,37.05
2022-11-29T07:08:00.624Z,31.83
2022-11-29T07:10:29.155Z,31.35
2022-11-29T07:12:56.348Z,31.60
2022-11-29T07:15:24.026Z,32.72
2022-11-29T07:18:10.825Z,33.70
2022-11-29T07:20:53.380Z,36.42
2022-11-29T07:23:48.499Z,31.67
2022-11-29T07:26:24.836Z,35.70
2022-11-29T07:29:08.159Z,40.28
2022-11-29T07:32:01.998Z,34.80
2022-11-29T07:34:34.754Z,32.60
2022-11-29T07:37:22.697Z,33.42
2022-11-29T07:40:02.554Z,31.42
2022-11-29T07:42:53.689Z,33.53
2022-11-29T07:45:34.229Z,28.67
2022-11-29T07:48:01.046Z,29.40
2022-11-29T07:50:29.309Z,30.15
2022-11-29T07:52:56.588Z,33.80
2022-11-29T07:55:26.223Z,32.28
2022-11-29T07:57:53.437Z,32.20
2022-11-29T08:00:21.384Z,30.67
2022-11-29T08:02:49.539Z,30.73
2022-11-29T08:05:16.597Z,32.17
2022-11-29T08:07:43.505Z,27.73
2022-11-29T08:10:14.093Z,26.13
2022-11-29T08:12:47.464Z,31.00
2022-11-29T08:15:14.965Z,29.77
2022-11-29T08:17:41.804Z,33.10
2022-11-29T08:20:10.551Z,35.25
2022-11-29T08:22:37.743Z,31.77
2022-11-29T08:25:06.100Z,32.80
2022-11-29T08:27:33.304Z,33.72
2022-11-29T08:30:00.191Z,29.98
2022-11-29T08:32:27.704Z,29.00
2022-11-29T08:34:54.669Z,27.08
2022-11-29T08:37:21.532Z,25.73
2022-11-29T08:39:48.392Z,28.80
2022-11-29T08:42:15.180Z,27.48
2022-11-29T08:44:42.038Z,27.75
2022-11-29T08:47:29.008Z,26.77
2022-11-29T08:50:01.623Z,30.13
2022-11-29T08:52:52.541Z,28.00
2022-11-29T08:55:21.157Z,21.73
2022-11-29T08:57:49.710Z,26.35
2022-11-29T09:00:18.252Z,23.92
2022-11-29T09:02:45.164Z,26.08
2022-11-29T09:05:12.217Z,23.55
2022-11-29T09:07:39.385Z,23.25
2022-11-29T09:10:08.469Z,24.23
2022-11-29T09:12:40.195Z,22.60
2022-11-29T09:15:09.304Z,23.90
2022-11-29T09:17:36.280Z,22.83
2022-11-29T09:20:04.600Z,21.45
2022-11-29T09:22:31.539Z,23.42
2022-11-29T09:24:58.378Z,21.73
2022-11-29T09:27:25.245Z,23.80
2022-11-29T09:29:52.054Z,23.95
2022-11-29T09:32:18.856Z,24.85
2022-11-29T09:34:46.191Z,23.08
2022-11-29T09:37:13.135Z,23.20
2022-11-29T09:39:41.495Z,21.88
2022-11-29T09:42:33.108Z,22.88
2022-11-29T09:45:24.335Z,21.88
2022-11-29T09:48:31.093Z,23.58
2022-11-29T09:51:09.610Z,22.73
2022-11-29T09:53:56.630Z,22.33
2022-11-29T09:56:44.988Z,22.23
2022-11-29T09:59:28.300Z,20.95
2022-11-29T10:02:03.308Z,25.70
2022-11-29T10:04:36.215Z,23.40
2022-11-29T10:07:08.932Z,20.30
2022-11-29T10:09:46.026Z,23.77
2022-11-29T10:12:31.800Z,21.90
2022-11-29T10:15:16.906Z,20.65
2022-11-29T10:18:15.914Z,21.52
2022-11-29T10:20:49.052Z,22.23
2022-11-29T10:23:47.698Z,21.98
2022-11-29T10:26:14.726Z,20.13
2022-11-29T10:28:48.723Z,20.85
2022-11-29T10:31:25.099Z,21.38
2022-11-29T10:33:52.042Z,21.50
2022-11-29T10:36:18.917Z,19.40
2022-11-29T10:38:47.360Z,19.55
2022-11-29T10:41:19.736Z,20.95
2022-11-29T10:43:47.455Z,20.60
2022-11-29T10:46:36.640Z,19.25
2022-11-29T10:49:06.771Z,19.63
2022-11-29T10:51:34.807Z,20.85
2022-11-29T10:54:22.486Z,19.08
2022-11-29T10:56:49.704Z,19.33
2022-11-29T10:59:22.901Z,20.20
2022-11-29T11:04:33.604Z,21.02
2022-11-29T11:07:02.890Z,17.88
2022-11-29T11:09:33.594Z,19.52
2022-11-29T11:12:03.954Z,20.52
2022-11-29T11:14:39.853Z,17.60
2022-11-29T11:17:26.555Z,17.75
2022-11-29T11:20:01.019Z,17.33
2022-11-29T11:22:29.625Z,17.73
2022-11-29T11:25:03.279Z,18.42
2022-11-29T11:27:40.140Z,18.70
2022-11-29T11:30:20.309Z,18.85
2022-11-29T11:33:19.235Z,17.58
2022-11-29T11:36:19.439Z,17.83
2022-11-29T11:38:54.092Z,15.48
2022-11-29T11:41:46.908Z,16.10
2022-11-29T11:44:48.415Z,15.80
2022-11-29T11:47:20.594Z,21.10
2022-11-29T11:50:03.645Z,14.07
2022-11-29T11:52:40.043Z,15.27
2022-11-29T11:55:30.893Z,15.25
2022-11-29T11:58:09.857Z,13.93
2022-11-29T12:01:04.968Z,13.63
2022-11-29T12:03:58.756Z,15.23
2022-11-29T12:06:52.294Z,15.32
2022-11-29T12:09:19.383Z,14.50
2022-11-29T12:12:17.039Z,15.73
2022-11-29T12:14:57.557Z,15.20
2022-11-29T12:17:41.487Z,15.63
2022-11-29T12:20:24.483Z,14.75
2022-11-29T12:23:03.449Z,14.13
2022-11-29T12:25:40.118Z,13.02
2022-11-29T12:28:20.402Z,13.13
2022-11-29T12:30:59.795Z,14.00
2022-11-29T12:33:40.007Z,13.95
2022-11-29T12:36:19.192Z,14.30
2022-11-29T12:39:12.427Z,13.38
2022-11-29T12:41:53.799Z,13.15
2022-11-29T12:44:37.172Z,13.50
2022-11-29T12:47:37.234Z,14.23
2022-11-29T12:50:42.091Z,11.68
2022-11-29T12:53:27.256Z,12.82
2022-11-29T12:56:05.603Z,12.75
2022-11-29T12:58:46.443Z,11.48
2022-11-29T13:01:35.100Z,13.75
2022-11-29T13:04:39.463Z,11.57
2022-11-29T13:07:18.119Z,12.95
2022-11-29T13:10:18.811Z,13.40
2022-11-29T13:12:56.038Z,14.13
2022-11-29T13:15:38.089Z,12.60
2022-11-29T13:18:13.846Z,13.27
2022-11-29T13:21:04.506Z,12.88
2022-11-29T13:24:06.932Z,15.35
2022-11-29T13:26:27.076Z,14.70
2022-11-29T13:28:54.580Z,15.18
2022-11-29T13:31:23.583Z,15.00
2022-11-29T13:34:08.715Z,15.68
2022-11-29T13:36:47.793Z,13.57
2022-11-29T13:39:39.461Z,15.77
2022-11-29T13:42:24.379Z,15.05
2022-11-29T13:45:07.936Z,15.23
2022-11-29T13:47:48.538Z,16.70
2022-11-29T13:50:37.367Z,15.20
2022-11-29T13:53:17.826Z,15.65
2022-11-29T13:56:00.084Z,17.05
2022-11-29T13:58:30.798Z,17.40
2022-11-29T14:01:09.740Z,17.25
2022-11-29T14:03:38.850Z,15.93
2022-11-29T14:06:10.801Z,17.02
2022-11-29T14:11:42.971Z,18.02
2022-11-29T14:14:22.717Z,15.98
2022-11-29T14:16:52.493Z,16.88
2022-11-29T14:19:30.102Z,16.17
2022-11-29T14:22:02.771Z,15.80
2022-11-29T14:24:32.479Z,17.70
2022-11-29T14:27:19.509Z,15.02
2022-11-29T14:29:49.582Z,15.02
2022-11-29T14:32:42.875Z,13.70
2022-11-29T14:35:12.922Z,13.85
2022-11-29T14:37:51.769Z,13.68
2022-11-29T14:40:33.632Z,14.23
2022-11-29T14:43:02.398Z,13.63
2022-11-29T14:45:32.640Z,13.63
2022-11-29T14:48:00.376Z,13.07
2022-11-29T14:50:37.509Z,12.10
2022-11-29T14:53:06.601Z,12.50
2022-11-29T14:55:36.758Z,10.98
2022-11-29T14:58:06.048Z,10.48
2022-11-29T15:00:32.950Z,10.25
2022-11-29T15:03:10.776Z,9.68
2022-11-29T15:05:44.700Z,10.25
2022-11-29T15:08:27.031Z,9.18
2022-11-29T15:10:59.360Z,9.90
2022-11-29T15:13:31.927Z,9.20
2022-11-29T15:16:21.167Z,9.60
2022-11-29T15:19:13.239Z,9.02
2022-11-29T15:22:20.561Z,10.15
2022-11-29T15:24:59.772Z,9.55
2022-11-29T15:27:26.829Z,10.90
2022-11-29T15:29:53.933Z,10.68
2022-11-29T15:32:23.114Z,10.90
2022-11-29T15:34:53.336Z,10.43
2022-11-29T15:37:24.455Z,11.18
2022-11-29T15:40:14.781Z,10.70
2022-11-29T15:42:49.447Z,10.30
2022-11-29T15:45:25.111Z,11.07
2022-11-29T15:48:03.072Z,11.73
2022-11-29T15:50:33.398Z,10.73
2022-11-29T15:53:05.681Z,11.52
2022-11-29T15:55:33.760Z,11.60
2022-11-29T15:58:08.533Z,12.30
2022-11-29T16:00:36.735Z,13.63
2022-11-29T16:03:05.609Z,12.60
2022-11-29T16:05:38.327Z,12.63
2022-11-29T16:08:14.365Z,13.30
2022-11-29T16:10:52.965Z,13.23
2022-11-29T16:13:25.905Z,13.30
2022-11-29T16:16:06.488Z,13.43
2022-11-29T16:18:34.451Z,13.80
2022-11-29T16:21:04.558Z,13.63
2022-11-29T16:23:43.409Z,12.40
2022-11-29T16:26:19.914Z,13.68
2022-11-29T16:28:49.816Z,12.93
2022-11-29T16:31:30.536Z,13.13
2022-11-29T16:33:57.926Z,13.43
2022-11-29T16:36:28.951Z,14.07
2022-11-29T16:39:16.917Z,12.85
2022-11-29T16:41:44.135Z,14.82
2022-11-29T16:44:45.848Z,15.02
2022-11-29T16:47:17.638Z,15.93
2022-11-29T16:49:44.695Z,15.98
2022-11-29T16:52:32.788Z,15.15
2022-11-29T16:55:00.237Z,16.52
2022-11-29T16:57:28.775Z,17.77
2022-11-29T16:59:55.674Z,16.60
2022-11-29T17:02:22.894Z,17.00
2022-11-29T17:04:52.865Z,16.80
2022-11-29T17:07:32.161Z,16.75
2022-11-29T17:09:59.940Z,17.10
2022-11-29T17:12:26.929Z,16.50
2022-11-29T17:14:53.788Z,16.75
2022-11-29T17:17:20.733Z,17.45
2022-11-29T17:19:47.755Z,16.02
2022-11-29T17:22:14.556Z,18.17
2022-11-29T17:24:46.404Z,18.92
2022-11-29T17:27:14.714Z,18.10
2022-11-29T17:29:41.694Z,18.63
2022-11-29T17:32:08.647Z,18.98
2022-11-29T17:34:35.653Z,20.77
2022-11-29T17:37:02.609Z,19.92
2022-11-29T17:39:31.276Z,19.42
2022-11-29T17:41:58.207Z,19.52
2022-11-29T17:44:25.077Z,19.10
2022-11-29T17:46:51.949Z,19.48
2022-11-29T17:49:18.908Z,19.17
2022-11-29T17:51:53.918Z,20.08
2022-11-29T17:54:22.300Z,20.25
2022-11-29T17:56:49.597Z,18.58
2022-11-29T17:59:16.723Z,17.40
2022-11-29T18:01:49.587Z,17.27
2022-11-29T18:04:16.642Z,14.73
2022-11-29T18:06:43.713Z,14.95
2022-11-29T18:09:11.145Z,13.82
2022-11-29T18:11:48.734Z,13.77
2022-11-29T18:14:23.499Z,14.52
2022-11-29T18:16:51.208Z,13.13
2022-11-29T18:19:20.353Z,14.18
2022-11-29T18:21:49.154Z,14.82
2022-11-29T18:24:16.577Z,14.65
2022-11-29T18:26:43.895Z,14.75
2022-11-29T18:29:11.314Z,15.88
2022-11-29T18:31:41.122Z,16.95
2022-11-29T18:34:09.997Z,17.88
2022-11-29T18:36:45.589Z,17.00
2022-11-29T18:39:15.143Z,17.88
2022-11-29T18:41:44.235Z,17.77
2022-11-29T18:44:13.912Z,18.27
2022-11-29T18:46:43.142Z,19.08
2022-11-29T18:49:12.725Z,20.05
2022-11-29T18:51:41.124Z,17.67
2022-11-29T18:54:08.691Z,19.23
2022-11-29T18:56:36.550Z,18.15
2022-11-29T18:59:07.201Z,18.73
2022-11-29T19:01:37.839Z,18.27
2022-11-29T19:04:05.232Z,17.75
2022-11-29T19:06:39.458Z,19.10
2022-11-29T19:09:11.580Z,18.20
2022-11-29T19:11:38.873Z,16.92
2022-11-29T19:14:11.587Z,17.17
2022-11-29T19:16:43.767Z,16.20
2022-11-29T19:19:11.446Z,16.20
2022-11-29T19:21:39.995Z,15.02
2022-11-29T19:24:13.767Z,16.30
2022-11-29T19:26:42.970Z,16.98
2022-11-29T19:29:10.091Z,16.10
2022-11-29T19:31:39.414Z,16.15
2022-11-29T19:34:06.630Z,15.60
2022-11-29T19:36:33.658Z,16.38
2022-11-29T19:39:01.713Z,15.95
2022-11-29T19:41:33.961Z,17.08
2022-11-29T19:44:04.792Z,18.20
2022-11-29T19:46:40.575Z,18.40
2022-11-29T19:49:08.589Z,17.88
2022-11-29T19:51:36.113Z,18.23
2022-11-29T19:54:05.477Z,18.80
2022-11-29T19:56:33.094Z,18.50
2022-11-29T19:59:00.203Z,17.30
2022-11-29T20:01:37.840Z,17.80
2022-11-29T20:04:06.696Z,17.25
2022-11-29T20:06:33.518Z,17.08
2022-11-29T20:09:00.463Z,15.93
2022-11-29T20:11:27.338Z,16.77
2022-11-29T20:14:02.750Z,17.27
2022-11-29T20:16:30.991Z,16.98
2022-11-29T20:18:58.673Z,18.20
2022-11-29T20:21:28.410Z,18.45
2022-11-29T20:23:57.535Z,19.35
2022-11-29T20:26:25.756Z,17.30
2022-11-29T20:28:52.852Z,18.92
2022-11-29T20:31:22.829Z,19.65
2022-11-29T20:33:52.411Z,19.65
2022-11-29T20:36:40.005Z,18.92
2022-11-29T20:39:15.740Z,19.00
2022-11-29T20:42:20.428Z,17.73
2022-11-29T20:44:56.184Z,16.65
2022-11-29T20:47:26.107Z,18.05
2022-11-29T20:49:53.309Z,16.55
2022-11-29T20:52:36.233Z,17.80
2022-11-29T20:55:03.194Z,18.70
2022-11-29T20:57:30.169Z,17.50
2022-11-29T20:59:57.055Z,18.20
2022-11-29T21:02:24.758Z,18.45
2022-11-29T21:04:51.928Z,16.85
2022-11-29T21:07:18.961Z,18.92
2022-11-29T21:09:46.082Z,18.33
2022-11-29T21:12:13.501Z,15.05
2022-11-29T21:14:40.740Z,15.60
2022-11-29T21:17:08.935Z,15.63
2022-11-29T21:19:36.444Z,16.95
2022-11-29T21:22:10.193Z,17.63
2022-11-29T21:24:48.334Z,16.05
2022-11-29T21:27:23.618Z,17.25
2022-11-29T21:29:50.834Z,17.25
2022-11-29T21:32:26.609Z,18.23
2022-11-29T21:34:53.580Z,20.38
2022-11-29T21:37:25.035Z,18.75
2022-11-29T21:39:53.283Z,19.23
2022-11-29T21:42:20.240Z,19.95
2022-11-29T21:44:47.538Z,19.55
2022-11-29T21:47:17.599Z,19.63
2022-11-29T21:49:45.053Z,21.40
2022-11-29T21:52:11.920Z,20.40
2022-11-29T21:54:39.379Z,21.17
2022-11-29T21:57:06.289Z,21.58
2022-11-29T21:59:33.086Z,21.13
2022-11-29T22:02:00.078Z,21.65
2022-11-29T22:04:27.051Z,21.02
2022-11-29T22:06:53.954Z,22.60
2022-11-29T22:09:20.799Z,21.52
2022-11-29T22:11:47.903Z,22.35
2022-11-29T22:14:17.095Z,22.38
2022-11-29T22:16:55.833Z,20.65
2022-11-29T22:19:29.684Z,20.45
2022-11-29T22:22:02.328Z,19.92
2022-11-29T22:24:32.164Z,20.50
2022-11-29T22:26:59.225Z,20.70
2022-11-29T22:29:26.214Z,20.15
2022-11-29T22:31:55.270Z,18.27
2022-11-29T22:34:25.081Z,18.00
2022-11-29T22:36:52.020Z,20.05
2022-11-29T22:39:18.909Z,17.27
2022-11-29T22:41:52.247Z,16.77
2022-11-29T22:44:20.982Z,15.45
2022-11-29T22:46:47.894Z,16.00
2022-11-29T22:49:14.885Z,15.02
2022-11-29T22:51:41.752Z,16.30
2022-11-29T22:54:10.601Z,17.02
2022-11-29T22:56:39.856Z,15.80
2022-11-29T22:59:07.016Z,17.25
2022-11-29T23:01:36.150Z,17.83
2022-11-29T23:04:06.096Z,18.40
2022-11-29T23:06:38.474Z,19.30
2022-11-29T23:09:12.057Z,18.63
2022-11-29T23:11:39.045Z,19.85
2022-11-29T23:14:05.835Z,20.42
2022-11-29T23:16:33.086Z,20.50
2022-11-29T23:19:00.924Z,21.27
2022-11-29T23:21:32.063Z,20.17
2022-11-29T23:24:00.925Z,21.60
2022-11-29T23:26:31.446Z,21.60
2022-11-29T23:28:58.660Z,22.42
2022-11-29T23:31:25.864Z,22.55
2022-11-29T23:33:52.809Z,21.65
2022-11-29T23:36:20.388Z,21.48
2022-11-29T23:38:48.662Z,23.75
2022-11-29T23:41:15.568Z,23.73
2022-11-29T23:43:42.893Z,24.02
2022-11-29T23:46:14.011Z,23.83
2022-11-29T23:48:41.338Z,22.42
2022-11-29T23:51:08.459Z,22.70
2022-11-29T23:53:35.520Z,23.40
2022-11-29T23:56:13.948Z,24.10
2022-11-29T23:58:41.628Z,23.75
